LTBK Airport Information

Runway Information
Runway 17 Length 4453 ft width 131 ft
Elevation 432 ft Threshold 0 ft Heading 168
Runway 35 Length 4453 ft Width 131 ft
Elevation 425 ft Threshold 0 ft Heading 348
Airport Frequencies
Type APP Name MENDERES A Frequency 120.1 MHZ
Airport Navaids
Airport Weather Information & NOTAM
ADDS - METARS form results

(2119 UTC 18 December 2018)
Data provider http://aviationweather.gov/metar/data/
 
Forecast for: AMD
Text: TAF AMD LTBK 181510Z 1815/1824 VRB02KT 3200 -RA BR SCT025 BKN080
Forecast period: 1500 UTC 18 December 2018 to 0000 UTC 19 December 2018
Forecast type: FROM: standard forecast or significant change
Winds: variable direction winds at 2 MPH (2 knots; 1.0 m/s)
Visibility: 1.99 miles (3.20 km)
Ceiling: 8000 feet AGL
Clouds: scattered clouds at 2500 feet AGL
broken clouds at 8000 feet AGL
Weather: -RA BR  (light rain, mist)
Text: TEMPO 1821/1824 0800 FG VV001
Forecast period: 2100 UTC 18 December 2018 to 0000 UTC 19 December 2018
Forecast type: TEMPORARY: The following changes expected for less than half the time period
Visibility: 0.50 miles (0.80 km)
Ceiling: indefinite ceiling with vertical visibility of 100 feet AGL
Clouds: obscured sky
Weather: FG  (fog)